Sainte-Croix, Canada
Current Conditions -  °F | °C
As of 2:00 AM on Saturday 25 Oct 2014 (Local Time) from CYQB Reporting Station
Scattered Clouds Scattered Clouds  
Wind Chill:   Ceiling: Unl
Heat Index:   Visibility: 15mi
Dew Point:   Wind: 2mph
Humidity: 81%   Direction: 20°NNE
Pressure: 29.74"   Gusts: NA
Location:  46.62°N, 71.73°W
Report Text: CYQB 250600Z 02002KT 15SM FEW190 SCT240 03/M00 A2974 RMK CI1CI3 SLP075
Loading
Personal Weather Stations






























Interactive Weather Map
Tropical Storm Tracking
New forecast layout! Learn more

10-Day Weather Forecast

Advertisements
Track Severe Weather on mobile